This is the latest recevied weather packets stored in our database for station/object KF0WJA. If no packets are shown the sender has not sent any weather packets the latest 10 day(s).
| Time | Temp. | Humidity | Pressure | Rain* | Wind** | Luminosity | Snow |
|---|---|---|---|---|---|---|---|
| 1787505128 | 28.89° C | 58% | 1022 hPa | 0 mm | - | 409 W/m² | - |
| 1787504823 | 28.33° C | 59% | 1022 hPa | 0 mm | - | 764 W/m² | - |
| 1787504519 | 27.78° C | 61% | 1021.9 hPa | 0 mm | - | 471 W/m² | - |
| 1787504214 | 27.78° C | 62% | 1022 hPa | 0 mm | - | 354 W/m² | - |
| 1787503910 | 27.78° C | 61% | 1021.7 hPa | 0 mm | - | 425 W/m² | - |
| 1787503605 | 28.33° C | 59% | 1021.9 hPa | 0 mm | - | 527 W/m² | - |
| 1787503303 | 27.78° C | 62% | 1022 hPa | 0 mm | - | 334 W/m² | - |
| 1787503002 | 28.89° C | 60% | 1022 hPa | 0 mm | - | 740 W/m² | - |
| 1787502697 | 28.33° C | 61% | 1022 hPa | 0 mm | - | 707 W/m² | - |
| 1787502392 | 27.78° C | 60% | 1021.8 hPa | 0 mm | - | 517 W/m² | - |
| 1787502092 | 28.33° C | 60% | 1021.8 hPa | 0 mm | - | 595 W/m² | - |
| 1787501788 | 27.78° C | 63% | 1021.9 hPa | 0 mm | - | 632 W/m² | - |
| 1787501484 | 27.78° C | 62% | 1022.1 hPa | 0 mm | - | 640 W/m² | - |
| 1787501180 | 28.33° C | 61% | 1022.1 hPa | 0 mm | - | 647 W/m² | - |
| 1787500876 | 27.78° C | 63% | 1022.3 hPa | 0 mm | - | 636 W/m² | - |
| 1787500572 | 27.22° C | 62% | 1022 hPa | 0 mm | - | 613 W/m² | - |
| 1787500266 | 26.67° C | 63% | 1022.3 hPa | 0 mm | - | 573 W/m² | - |
| 1787499966 | 26.67° C | 64% | 1022.5 hPa | 0 mm | - | 532 W/m² | - |
| 1787499661 | 26.67° C | 64% | 1022.5 hPa | 0 mm | - | 544 W/m² | - |
| 1787499355 | 27.22° C | 63% | 1022.3 hPa | 0 mm | - | 524 W/m² | - |
| 1787499052 | 27.22° C | 63% | 1022.6 hPa | 0 mm | - | 533 W/m² | - |
| 1787498749 | 26.11° C | 65% | 1022.5 hPa | 0 mm | - | 475 W/m² | - |
| 1787498446 | 26.11° C | 65% | 1022.4 hPa | 0 mm | - | 463 W/m² | - |
| 1787498141 | 26.67° C | 65% | 1022.3 hPa | 0 mm | - | 162 W/m² | - |
| 1787497837 | 26.11° C | 67% | 1022.8 hPa | 0 mm | - | 410 W/m² | - |
* Rain latest hour (hover to see other rain measurements)
** Current wind speed in m/s (hover to see current wind gust speed)